createdAt,value
2017-02-05T00:00:00.836Z,5.83
2017-02-05T00:01:06.935Z,5.89
2017-02-05T00:02:12.054Z,5.85
2017-02-05T00:03:17.153Z,5.86
2017-02-05T00:04:23.254Z,5.82
2017-02-05T00:05:29.343Z,5.86
2017-02-05T00:06:34.468Z,5.85
2017-02-05T00:07:39.572Z,5.82
2017-02-05T00:08:43.726Z,5.86
2017-02-05T00:09:49.872Z,5.85
2017-02-05T00:10:55.980Z,5.92
2017-02-05T00:12:01.106Z,5.86
2017-02-05T00:13:06.249Z,5.86
2017-02-05T00:14:12.332Z,5.86
2017-02-05T00:15:16.480Z,5.88
2017-02-05T00:16:22.580Z,5.88
2017-02-05T00:17:27.714Z,5.88
2017-02-05T00:18:31.835Z,5.85
2017-02-05T00:19:37.926Z,5.89
2017-02-05T00:20:44.018Z,5.98
2017-02-05T00:21:50.118Z,5.98
2017-02-05T00:22:55.210Z,6.01
2017-02-05T00:24:01.317Z,5.91
2017-02-05T00:25:06.437Z,5.91
2017-02-05T00:26:10.604Z,5.89
2017-02-05T00:27:16.730Z,5.93
2017-02-05T00:28:20.881Z,6.01
2017-02-05T00:29:26.971Z,5.98
2017-02-05T00:30:33.071Z,5.98
2017-02-05T00:31:38.193Z,5.93
2017-02-05T00:32:43.294Z,5.89
2017-02-05T00:33:49.396Z,5.86
2017-02-05T00:34:55.486Z,5.95
2017-02-05T00:36:01.600Z,5.89
2017-02-05T00:37:06.712Z,5.86
2017-02-05T00:38:12.821Z,5.82
2017-02-05T00:39:17.946Z,5.86
2017-02-05T00:40:24.047Z,5.85
2017-02-05T00:41:29.137Z,5.91
2017-02-05T00:42:35.233Z,5.83
2017-02-05T00:43:40.324Z,5.83
2017-02-05T00:44:46.468Z,5.86
2017-02-05T00:45:50.631Z,5.81
2017-02-05T00:46:56.725Z,5.82
2017-02-05T00:48:02.834Z,5.85
2017-02-05T00:49:08.913Z,5.88
2017-02-05T00:50:15.003Z,5.92
2017-02-05T00:51:21.112Z,5.83
2017-02-05T00:52:27.218Z,5.92
2017-02-05T00:53:32.309Z,5.78
2017-02-05T00:54:37.440Z,5.85
2017-02-05T00:55:43.541Z,5.86
2017-02-05T00:56:48.663Z,5.75
2017-02-05T00:57:52.822Z,5.85
2017-02-05T00:58:58.917Z,5.85
2017-02-05T01:00:05.014Z,5.91
2017-02-05T01:01:07.220Z,5.88
2017-02-05T01:02:13.308Z,5.91
2017-02-05T01:03:19.423Z,5.86
2017-02-05T01:04:24.538Z,5.95
2017-02-05T01:05:29.652Z,5.98
2017-02-05T01:06:34.756Z,6.01
2017-02-05T01:07:39.877Z,5.86
2017-02-05T01:08:45.039Z,6
2017-02-05T01:09:50.159Z,5.98
2017-02-05T01:10:53.328Z,5.95
2017-02-05T01:11:58.446Z,5.92
2017-02-05T01:13:03.537Z,5.92
2017-02-05T01:14:08.665Z,5.95
2017-02-05T01:15:13.797Z,5.93
2017-02-05T01:16:17.952Z,6.01
2017-02-05T01:17:22.101Z,6
2017-02-05T01:18:27.230Z,6.07
2017-02-05T01:19:31.394Z,6.03
2017-02-05T01:20:37.480Z,5.98
2017-02-05T01:21:42.572Z,5.96
2017-02-05T01:22:47.697Z,5.95
2017-02-05T01:23:51.844Z,5.93
2017-02-05T01:24:57.953Z,6
2017-02-05T01:26:03.058Z,6
2017-02-05T01:27:08.179Z,6.06
2017-02-05T01:28:14.276Z,6
2017-02-05T01:29:20.370Z,6
2017-02-05T01:30:25.512Z,5.98
2017-02-05T01:31:31.578Z,6.01
2017-02-05T01:32:35.745Z,6.09
2017-02-05T01:33:41.844Z,6.03
2017-02-05T01:34:46.971Z,6.01
2017-02-05T01:35:52.099Z,6.09
2017-02-05T01:36:58.245Z,6.07
2017-02-05T01:38:03.402Z,6.07
2017-02-05T01:39:09.493Z,6.1
2017-02-05T01:40:13.625Z,6.01
2017-02-05T01:41:17.753Z,6.13
2017-02-05T01:42:22.844Z,6.04
2017-02-05T01:43:28.938Z,6.1
2017-02-05T01:44:34.070Z,6.11
2017-02-05T01:45:39.205Z,6.14
2017-02-05T01:46:45.362Z,6.13
2017-02-05T01:47:50.490Z,6.11
2017-02-05T01:48:56.581Z,6.1
2017-02-05T01:50:00.743Z,6.03
2017-02-05T01:51:05.878Z,6.06
2017-02-05T01:52:09.999Z,6.04
2017-02-05T01:53:15.122Z,6.1
2017-02-05T01:54:20.259Z,6.03
2017-02-05T01:55:25.350Z,6.1
2017-02-05T01:56:31.462Z,6.06
2017-02-05T01:57:36.591Z,6.1
2017-02-05T01:58:41.730Z,6.11
2017-02-05T01:59:46.844Z,6.04
2017-02-05T02:00:50.995Z,6.13
2017-02-05T02:01:56.118Z,6.03
2017-02-05T02:03:01.217Z,6.06
2017-02-05T02:04:06.356Z,6.18
2017-02-05T02:05:11.474Z,6.13
2017-02-05T02:06:16.602Z,6.14
2017-02-05T02:07:22.694Z,6.07
2017-02-05T02:08:27.815Z,6.06
2017-02-05T02:09:32.945Z,6.09
2017-02-05T02:10:38.065Z,6.04
2017-02-05T02:11:43.191Z,6.07
2017-02-05T02:12:48.311Z,6.07
2017-02-05T02:13:54.412Z,6.06
2017-02-05T02:15:00.499Z,6.04
2017-02-05T02:16:05.637Z,6.01
2017-02-05T02:17:10.722Z,5.96
2017-02-05T02:18:15.819Z,6.06
2017-02-05T02:19:20.948Z,5.92
2017-02-05T02:20:27.054Z,6.03
2017-02-05T02:21:33.154Z,6.04
2017-02-05T02:22:39.260Z,5.98
2017-02-05T02:23:45.351Z,6
2017-02-05T02:24:48.513Z,6.03
2017-02-05T02:25:53.650Z,6.04
2017-02-05T02:26:59.742Z,5.95
2017-02-05T02:28:05.839Z,5.96
2017-02-05T02:29:11.947Z,5.98
2017-02-05T02:30:18.019Z,5.98
2017-02-05T02:31:22.151Z,5.93
2017-02-05T02:32:27.276Z,5.95
2017-02-05T02:33:31.435Z,5.96
2017-02-05T02:34:37.536Z,5.96
2017-02-05T02:35:43.631Z,6.03
2017-02-05T02:36:46.826Z,6
2017-02-05T02:37:52.936Z,5.98
2017-02-05T02:38:59.019Z,5.89
2017-02-05T02:40:04.150Z,6.01
2017-02-05T02:41:10.244Z,6.03
2017-02-05T02:42:16.339Z,6
2017-02-05T02:43:21.430Z,5.93
2017-02-05T02:44:27.561Z,6
2017-02-05T02:45:32.636Z,5.91
2017-02-05T02:46:37.801Z,5.98
2017-02-05T02:47:43.892Z,6.01
2017-02-05T02:48:49.026Z,6.01
2017-02-05T02:49:55.120Z,5.89
2017-02-05T02:51:00.249Z,5.93
2017-02-05T02:52:06.352Z,5.82
2017-02-05T02:53:12.447Z,5.85
2017-02-05T02:54:18.547Z,5.83
2017-02-05T02:55:24.649Z,5.81
2017-02-05T02:56:29.747Z,5.91
2017-02-05T02:57:33.884Z,5.89
2017-02-05T02:58:38.033Z,5.86
2017-02-05T02:59:40.256Z,5.78
2017-02-05T03:00:45.388Z,5.86
2017-02-05T03:01:51.481Z,5.74
2017-02-05T03:02:56.613Z,5.75
2017-02-05T03:04:02.705Z,5.82
2017-02-05T03:05:07.834Z,5.82
2017-02-05T03:06:12.991Z,5.81
2017-02-05T03:07:19.063Z,5.75
2017-02-05T03:08:23.187Z,5.73
2017-02-05T03:09:28.316Z,5.83
2017-02-05T03:10:34.414Z,5.82
2017-02-05T03:11:39.516Z,5.83
2017-02-05T03:12:44.639Z,5.81
2017-02-05T03:13:50.721Z,5.74
2017-02-05T03:14:56.833Z,5.73
2017-02-05T03:16:01.961Z,5.82
2017-02-05T03:17:07.062Z,5.74
2017-02-05T03:18:12.201Z,5.77
2017-02-05T03:19:18.288Z,5.73
2017-02-05T03:20:22.436Z,5.82
2017-02-05T03:21:28.630Z,5.82
2017-02-05T03:22:33.725Z,5.88
2017-02-05T03:23:38.854Z,5.82
2017-02-05T03:24:43.976Z,5.86
2017-02-05T03:25:49.081Z,5.85
2017-02-05T03:26:55.190Z,5.82
2017-02-05T03:28:01.284Z,5.77
2017-02-05T03:29:05.412Z,5.75
2017-02-05T03:30:11.509Z,5.77
2017-02-05T03:31:17.648Z,5.83
2017-02-05T03:32:22.778Z,5.82
2017-02-05T03:33:28.868Z,5.83
2017-02-05T03:34:34.963Z,5.85
2017-02-05T03:35:40.061Z,5.86
2017-02-05T03:36:45.185Z,5.85
2017-02-05T03:37:50.314Z,5.88
2017-02-05T03:38:56.462Z,5.86
2017-02-05T03:40:00.603Z,5.88
2017-02-05T03:41:04.755Z,5.92
2017-02-05T03:42:10.851Z,5.85
2017-02-05T03:43:15.949Z,5.82
2017-02-05T03:44:21.076Z,5.81
2017-02-05T03:45:26.203Z,5.82
2017-02-05T03:46:31.343Z,5.75
2017-02-05T03:47:36.452Z,5.83
2017-02-05T03:48:41.555Z,5.78
2017-02-05T03:49:45.702Z,5.75
2017-02-05T03:50:49.861Z,5.77
2017-02-05T03:51:54.985Z,5.86
2017-02-05T03:53:01.084Z,5.81
2017-02-05T03:54:07.188Z,5.75
2017-02-05T03:55:12.287Z,5.81
2017-02-05T03:56:17.412Z,5.85
2017-02-05T03:57:21.566Z,5.77
2017-02-05T03:58:26.700Z,5.82
2017-02-05T03:59:32.799Z,5.78
2017-02-05T04:00:38.913Z,5.74
2017-02-05T04:01:44.016Z,5.88
2017-02-05T04:02:49.136Z,5.77
2017-02-05T04:03:52.294Z,5.78
2017-02-05T04:04:57.422Z,5.74
2017-02-05T04:06:03.519Z,5.85
2017-02-05T04:07:09.609Z,5.83
2017-02-05T04:08:15.734Z,5.89
2017-02-05T04:09:20.804Z,5.75
2017-02-05T04:10:26.897Z,5.88
2017-02-05T04:11:32.993Z,5.81
2017-02-05T04:12:37.156Z,5.74
2017-02-05T04:13:43.243Z,5.86
2017-02-05T04:14:47.408Z,5.83
2017-02-05T04:15:52.523Z,5.81
2017-02-05T04:16:57.652Z,5.82
2017-02-05T04:18:03.738Z,5.92
2017-02-05T04:19:04.964Z,5.86
2017-02-05T04:20:09.119Z,5.78
2017-02-05T04:21:14.212Z,5.81
2017-02-05T04:22:19.308Z,5.77
2017-02-05T04:23:24.439Z,5.78
2017-02-05T04:24:28.605Z,5.81
2017-02-05T04:25:31.791Z,5.78
2017-02-05T04:26:37.896Z,5.91
2017-02-05T04:27:43.985Z,5.89
2017-02-05T04:28:49.107Z,5.89
2017-02-05T04:29:53.269Z,5.92
2017-02-05T04:30:58.478Z,5.89
2017-02-05T04:32:03.601Z,5.82
2017-02-05T04:33:07.716Z,5.86
2017-02-05T04:34:12.840Z,5.83
2017-02-05T04:35:17.968Z,5.77
2017-02-05T04:36:21.122Z,5.74
2017-02-05T04:37:27.221Z,5.73
2017-02-05T04:38:33.307Z,5.82
2017-02-05T04:39:39.402Z,5.85
2017-02-05T04:40:44.520Z,5.86
2017-02-05T04:41:50.616Z,5.83
2017-02-05T04:42:56.707Z,5.85
2017-02-05T04:44:00.844Z,5.86
2017-02-05T04:45:06.936Z,5.81
2017-02-05T04:46:12.063Z,5.82
2017-02-05T04:47:18.157Z,5.75
2017-02-05T04:48:24.268Z,5.78
2017-02-05T04:49:29.383Z,5.82
2017-02-05T04:50:34.479Z,5.89
2017-02-05T04:51:39.615Z,5.78
2017-02-05T04:52:45.710Z,5.78
2017-02-05T04:53:49.861Z,5.74
2017-02-05T04:54:54.023Z,5.78
2017-02-05T04:56:00.117Z,5.81
2017-02-05T04:57:06.212Z,5.78
2017-02-05T04:58:12.297Z,5.88
2017-02-05T04:59:17.427Z,5.81
2017-02-05T05:00:23.569Z,5.81
2017-02-05T05:01:28.659Z,5.78
2017-02-05T05:02:34.762Z,5.74
2017-02-05T05:03:40.914Z,5.77
2017-02-05T05:04:46.010Z,5.78
2017-02-05T05:05:52.105Z,5.73
2017-02-05T05:06:58.199Z,5.75
2017-02-05T05:08:04.297Z,5.75
2017-02-05T05:09:09.440Z,5.73
2017-02-05T05:10:14.557Z,5.75
2017-02-05T05:11:20.648Z,5.75
2017-02-05T05:12:25.780Z,5.67
2017-02-05T05:13:30.937Z,5.74
2017-02-05T05:14:36.034Z,5.68
2017-02-05T05:15:41.164Z,5.7
2017-02-05T05:16:46.302Z,5.68
2017-02-05T05:17:51.391Z,5.63
2017-02-05T05:18:57.478Z,5.63
2017-02-05T05:20:03.567Z,5.63
2017-02-05T05:21:09.665Z,5.63
2017-02-05T05:22:15.769Z,5.56
2017-02-05T05:23:20.900Z,5.55
2017-02-05T05:24:26.025Z,5.55
2017-02-05T05:25:32.124Z,5.46
2017-02-05T05:26:38.268Z,5.52
2017-02-05T05:27:43.362Z,5.6
2017-02-05T05:28:48.474Z,5.6
2017-02-05T05:29:54.570Z,5.64
2017-02-05T05:30:59.698Z,5.57
2017-02-05T05:32:04.823Z,5.59
2017-02-05T05:33:08.989Z,5.6
2017-02-05T05:34:15.087Z,5.66
2017-02-05T05:35:20.224Z,5.57
2017-02-05T05:36:26.315Z,5.63
2017-02-05T05:37:31.425Z,5.66
2017-02-05T05:38:36.606Z,5.66
2017-02-05T05:39:41.695Z,5.7
2017-02-05T05:40:46.820Z,5.68
2017-02-05T05:41:52.923Z,5.71
2017-02-05T05:42:58.004Z,5.74
2017-02-05T05:44:04.110Z,5.71
2017-02-05T05:45:10.210Z,5.71
2017-02-05T05:46:15.327Z,5.67
2017-02-05T05:47:20.457Z,5.85
2017-02-05T05:48:26.544Z,5.74
2017-02-05T05:49:31.688Z,5.71
2017-02-05T05:50:37.783Z,5.67
2017-02-05T05:51:43.882Z,5.68
2017-02-05T05:52:48.036Z,5.68
2017-02-05T05:53:54.128Z,5.7
2017-02-05T05:55:00.228Z,5.71
2017-02-05T05:56:06.321Z,5.78
2017-02-05T05:57:10.474Z,5.67
2017-02-05T05:58:15.604Z,5.66
2017-02-05T05:59:21.694Z,5.75
2017-02-05T06:00:27.788Z,5.77
2017-02-05T06:01:33.885Z,5.68
2017-02-05T06:02:39.973Z,5.73
2017-02-05T06:03:44.103Z,5.68
2017-02-05T06:04:50.211Z,5.66
2017-02-05T06:05:55.309Z,5.71
2017-02-05T06:06:59.472Z,5.74
2017-02-05T06:08:04.586Z,5.67
2017-02-05T06:09:08.746Z,5.7
2017-02-05T06:10:14.839Z,5.71
2017-02-05T06:11:18.977Z,5.73
2017-02-05T06:12:25.122Z,5.68
2017-02-05T06:13:31.232Z,5.68
2017-02-05T06:14:37.346Z,5.63
2017-02-05T06:15:42.464Z,5.71
2017-02-05T06:16:47.563Z,5.75
2017-02-05T06:17:51.725Z,5.7
2017-02-05T06:18:56.847Z,5.71
2017-02-05T06:20:00.010Z,5.74
2017-02-05T06:21:04.164Z,5.85
2017-02-05T06:22:09.289Z,5.86
2017-02-05T06:23:14.426Z,5.77
2017-02-05T06:24:20.512Z,5.78
2017-02-05T06:25:26.625Z,5.78
2017-02-05T06:26:31.740Z,5.89
2017-02-05T06:27:37.839Z,5.85
2017-02-05T06:28:42.001Z,5.77
2017-02-05T06:29:47.101Z,5.78
2017-02-05T06:30:50.260Z,5.74
2017-02-05T06:31:55.384Z,5.77
2017-02-05T06:32:57.577Z,5.82
2017-02-05T06:34:02.703Z,5.91
2017-02-05T06:35:08.804Z,5.89
2017-02-05T06:36:13.931Z,5.81
2017-02-05T06:37:19.042Z,5.81
2017-02-05T06:38:24.151Z,5.77
2017-02-05T06:39:30.263Z,5.78
2017-02-05T06:40:36.370Z,5.75
2017-02-05T06:41:42.463Z,5.83
2017-02-05T06:42:47.649Z,5.82
2017-02-05T06:43:51.795Z,5.77
2017-02-05T06:44:56.930Z,5.82
2017-02-05T06:46:02.037Z,5.68
2017-02-05T06:47:06.241Z,5.78
2017-02-05T06:48:10.341Z,5.78
2017-02-05T06:49:15.461Z,5.77
2017-02-05T06:50:20.582Z,5.81
2017-02-05T06:51:26.727Z,5.83
2017-02-05T06:52:30.874Z,5.78
2017-02-05T06:53:37.067Z,5.74
2017-02-05T06:54:42.158Z,5.82
2017-02-05T06:55:48.282Z,5.85
2017-02-05T06:56:53.367Z,5.75
2017-02-05T06:57:59.465Z,5.77
2017-02-05T06:59:05.581Z,5.74
2017-02-05T07:00:09.807Z,5.78
2017-02-05T07:01:15.905Z,5.82
2017-02-05T07:02:21.000Z,5.73
2017-02-05T07:03:26.137Z,5.77
2017-02-05T07:04:32.231Z,5.71
2017-02-05T07:05:37.323Z,5.7
2017-02-05T07:06:43.424Z,5.81
2017-02-05T07:07:49.528Z,5.78
2017-02-05T07:08:52.742Z,5.83
2017-02-05T07:09:58.839Z,5.7
2017-02-05T07:11:04.933Z,5.78
2017-02-05T07:12:11.025Z,5.81
2017-02-05T07:13:17.124Z,5.75
2017-02-05T07:14:21.292Z,5.77
2017-02-05T07:15:26.421Z,5.81
2017-02-05T07:16:32.525Z,5.86
2017-02-05T07:17:37.642Z,5.78
2017-02-05T07:18:41.769Z,5.81
2017-02-05T07:19:47.867Z,5.82
2017-02-05T07:20:53.966Z,5.78
2017-02-05T07:22:00.060Z,5.78
2017-02-05T07:23:05.187Z,5.78
2017-02-05T07:24:11.286Z,5.78
2017-02-05T07:25:17.374Z,5.77
2017-02-05T07:26:22.514Z,5.78
2017-02-05T07:27:27.624Z,5.89
2017-02-05T07:28:33.708Z,5.88
2017-02-05T07:29:37.866Z,5.89
2017-02-05T07:30:42.963Z,5.83
2017-02-05T07:31:47.099Z,5.83
2017-02-05T07:32:53.237Z,5.83
2017-02-05T07:33:59.339Z,5.91
2017-02-05T07:35:01.567Z,5.77
2017-02-05T07:36:07.663Z,5.86
2017-02-05T07:37:13.776Z,5.86
2017-02-05T07:38:19.867Z,5.86
2017-02-05T07:39:25.963Z,5.85
2017-02-05T07:40:31.095Z,5.98
2017-02-05T07:41:37.185Z,5.96
2017-02-05T07:42:42.311Z,5.86
2017-02-05T07:43:48.408Z,5.86
2017-02-05T07:44:53.545Z,5.85
2017-02-05T07:45:59.646Z,5.83
2017-02-05T07:47:04.776Z,5.86
2017-02-05T07:48:10.871Z,5.83
2017-02-05T07:49:15.970Z,5.89
2017-02-05T07:50:22.056Z,5.91
2017-02-05T07:51:27.183Z,5.82
2017-02-05T07:52:33.282Z,5.85
2017-02-05T07:53:38.388Z,5.85
2017-02-05T07:54:43.514Z,5.93
2017-02-05T07:55:48.687Z,6
2017-02-05T07:56:53.779Z,6
2017-02-05T07:57:59.869Z,6
2017-02-05T07:59:04.990Z,5.95
2017-02-05T08:00:09.155Z,5.95
2017-02-05T08:01:14.286Z,5.95
2017-02-05T08:02:20.392Z,5.98
2017-02-05T08:03:26.482Z,5.96
2017-02-05T08:04:32.582Z,5.96
2017-02-05T08:05:37.713Z,5.95
2017-02-05T08:06:42.835Z,6.04
2017-02-05T08:07:47.962Z,5.98
2017-02-05T08:08:53.085Z,6.04
2017-02-05T08:09:59.178Z,5.95
2017-02-05T08:11:04.283Z,5.98
2017-02-05T08:12:09.371Z,6.06
2017-02-05T08:13:15.466Z,6.06
2017-02-05T08:14:21.567Z,6.04
2017-02-05T08:15:27.671Z,6.18
2017-02-05T08:16:30.827Z,6.1
2017-02-05T08:17:36.916Z,6.14
2017-02-05T08:18:42.094Z,6.13
2017-02-05T08:19:47.219Z,6.13
2017-02-05T08:20:52.350Z,6.18
2017-02-05T08:21:56.486Z,6.22
2017-02-05T08:23:01.597Z,6.25
2017-02-05T08:24:07.698Z,6.25
2017-02-05T08:25:13.807Z,6.25
2017-02-05T08:26:17.934Z,6.29
2017-02-05T08:27:24.034Z,6.29
2017-02-05T08:28:30.142Z,6.26
2017-02-05T08:29:35.274Z,6.25
2017-02-05T08:30:40.394Z,6.32
2017-02-05T08:31:46.493Z,6.28
2017-02-05T08:32:51.651Z,6.29
2017-02-05T08:33:57.736Z,6.32
2017-02-05T08:35:03.811Z,6.26
2017-02-05T08:36:09.919Z,6.22
2017-02-05T08:37:13.107Z,6.3
2017-02-05T08:38:18.241Z,6.29
2017-02-05T08:39:24.344Z,6.33
2017-02-05T08:40:28.493Z,6.38
2017-02-05T08:41:33.613Z,6.38
2017-02-05T08:42:39.712Z,6.3
2017-02-05T08:43:44.821Z,6.32
2017-02-05T08:44:50.957Z,6.4
2017-02-05T08:45:56.212Z,6.36
2017-02-05T08:47:00.280Z,6.36
2017-02-05T08:48:04.419Z,6.4
2017-02-05T08:49:10.522Z,6.38
2017-02-05T08:50:15.651Z,6.46
2017-02-05T08:51:20.777Z,6.51
2017-02-05T08:52:25.928Z,6.53
2017-02-05T08:53:31.026Z,6.53
2017-02-05T08:54:37.118Z,6.5
2017-02-05T08:55:43.229Z,6.5
2017-02-05T08:56:47.393Z,6.48
2017-02-05T08:57:52.514Z,6.51
2017-02-05T08:58:55.688Z,6.41
2017-02-05T09:00:01.799Z,6.51
2017-02-05T09:01:07.905Z,6.58
2017-02-05T09:02:13.140Z,6.58
2017-02-05T09:03:18.273Z,6.54
2017-02-05T09:04:23.397Z,6.53
2017-02-05T09:05:28.482Z,6.56
2017-02-05T09:06:32.639Z,6.58
2017-02-05T09:07:37.769Z,6.56
2017-02-05T09:08:42.893Z,6.5
2017-02-05T09:09:48.019Z,6.59
2017-02-05T09:10:54.116Z,6.47
2017-02-05T09:11:58.239Z,6.58
2017-02-05T09:13:03.365Z,6.59
2017-02-05T09:14:08.486Z,6.63
2017-02-05T09:15:13.618Z,6.68
2017-02-05T09:16:19.723Z,6.62
2017-02-05T09:17:24.824Z,6.66
2017-02-05T09:18:28.990Z,6.76
2017-02-05T09:19:34.118Z,6.69
2017-02-05T09:20:38.279Z,6.76
2017-02-05T09:21:43.409Z,6.79
2017-02-05T09:22:47.540Z,6.79
2017-02-05T09:23:52.642Z,6.81
2017-02-05T09:24:57.778Z,6.79
2017-02-05T09:26:03.877Z,6.83
2017-02-05T09:27:09.981Z,6.72
2017-02-05T09:28:16.081Z,6.81
2017-02-05T09:29:22.172Z,6.86
2017-02-05T09:30:25.361Z,6.81
2017-02-05T09:31:30.499Z,6.69
2017-02-05T09:32:36.597Z,6.86
2017-02-05T09:33:42.709Z,6.84
2017-02-05T09:34:47.901Z,6.86
2017-02-05T09:35:53.958Z,6.83
2017-02-05T09:36:59.069Z,6.94
2017-02-05T09:38:05.165Z,6.8
2017-02-05T09:39:11.264Z,6.98
2017-02-05T09:40:17.357Z,6.89
2017-02-05T09:41:21.517Z,6.97
2017-02-05T09:42:27.622Z,7.08
2017-02-05T09:43:33.712Z,6.97
2017-02-05T09:44:39.804Z,7.07
2017-02-05T09:45:45.897Z,7.13
2017-02-05T09:46:49.055Z,7.12
2017-02-05T09:47:55.157Z,7.2
2017-02-05T09:49:00.289Z,7.26
2017-02-05T09:50:05.427Z,7.26
2017-02-05T09:51:10.574Z,7.29
2017-02-05T09:52:16.686Z,7.31
2017-02-05T09:53:22.744Z,7.41
2017-02-05T09:54:27.867Z,7.42
2017-02-05T09:55:33.004Z,7.53
2017-02-05T09:56:38.110Z,7.5
2017-02-05T09:57:43.211Z,7.53
2017-02-05T09:58:49.298Z,7.62
2017-02-05T09:59:54.425Z,7.63
2017-02-05T10:00:58.584Z,7.72
2017-02-05T10:02:04.683Z,7.9
2017-02-05T10:03:08.845Z,7.85
2017-02-05T10:04:14.939Z,8
2017-02-05T10:05:19.102Z,8.07
2017-02-05T10:06:25.210Z,8.07
2017-02-05T10:07:31.306Z,8.18
2017-02-05T10:08:36.427Z,8.26
2017-02-05T10:09:41.532Z,8.33
2017-02-05T10:10:47.629Z,8.44
2017-02-05T10:11:51.790Z,8.62
2017-02-05T10:12:56.922Z,8.63
2017-02-05T10:14:02.036Z,8.65
2017-02-05T10:15:08.131Z,8.72
2017-02-05T10:16:13.227Z,8.81
2017-02-05T10:17:18.359Z,8.79
2017-02-05T10:18:24.457Z,8.66
2017-02-05T10:19:28.619Z,8.73
2017-02-05T10:20:32.780Z,8.71
2017-02-05T10:21:38.880Z,8.71
2017-02-05T10:22:44.974Z,8.73
2017-02-05T10:23:50.115Z,8.83
2017-02-05T10:24:54.256Z,8.78
2017-02-05T10:26:00.354Z,8.68
2017-02-05T10:27:05.477Z,8.65
2017-02-05T10:28:09.635Z,8.54
2017-02-05T10:29:14.761Z,8.54
2017-02-05T10:30:19.899Z,8.6
2017-02-05T10:31:26.000Z,8.6
2017-02-05T10:32:31.124Z,8.72
2017-02-05T10:33:36.266Z,8.78
2017-02-05T10:34:42.374Z,8.78
2017-02-05T10:35:48.609Z,8.78
2017-02-05T10:36:52.672Z,8.84
2017-02-05T10:37:58.776Z,8.94
2017-02-05T10:39:02.050Z,8.96
2017-02-05T10:40:08.151Z,9.09
2017-02-05T10:41:14.253Z,9.13
2017-02-05T10:42:19.383Z,9.12
2017-02-05T10:43:25.476Z,9.21
2017-02-05T10:44:30.614Z,9.27
2017-02-05T10:45:35.750Z,9.28
2017-02-05T10:46:41.847Z,9.39
2017-02-05T10:47:47.955Z,9.5
2017-02-05T10:48:53.086Z,9.63
2017-02-05T10:49:58.234Z,9.71
2017-02-05T10:51:01.420Z,9.67
2017-02-05T10:52:07.540Z,9.78
2017-02-05T10:53:11.700Z,9.67
2017-02-05T10:54:15.842Z,9.75
2017-02-05T10:55:21.938Z,9.76
2017-02-05T10:56:28.051Z,9.78
2017-02-05T10:57:34.166Z,9.78
2017-02-05T10:58:38.311Z,9.76
2017-02-05T10:59:44.401Z,9.61
2017-02-05T11:00:50.496Z,9.67
2017-02-05T11:01:56.605Z,9.63
2017-02-05T11:03:00.841Z,9.64
2017-02-05T11:04:05.919Z,9.75
2017-02-05T11:05:12.025Z,9.75
2017-02-05T11:06:17.143Z,9.82
2017-02-05T11:07:23.288Z,9.85
2017-02-05T11:08:28.421Z,9.82
2017-02-05T11:09:33.552Z,9.91
2017-02-05T11:10:38.685Z,10
2017-02-05T11:11:44.794Z,10
2017-02-05T11:12:50.894Z,10.03
2017-02-05T11:13:57.012Z,10.21
2017-02-05T11:15:03.115Z,10.33
2017-02-05T11:16:07.267Z,10.4
2017-02-05T11:17:12.417Z,10.53
2017-02-05T11:18:18.496Z,10.56
2017-02-05T11:19:24.589Z,10.46
2017-02-05T11:20:28.728Z,10.46
2017-02-05T11:21:34.855Z,10.63
2017-02-05T11:22:39.017Z,10.77
2017-02-05T11:23:41.245Z,10.89
2017-02-05T11:24:47.345Z,10.92
2017-02-05T11:25:53.453Z,10.92
2017-02-05T11:26:58.587Z,10.91
2017-02-05T11:28:04.700Z,11.01
2017-02-05T11:29:09.799Z,10.99
2017-02-05T11:30:14.952Z,11.06
2017-02-05T11:31:20.089Z,10.94
2017-02-05T11:32:24.226Z,11.02
2017-02-05T11:33:29.361Z,10.99
2017-02-05T11:34:35.468Z,11.01
2017-02-05T11:35:38.659Z,11.09
2017-02-05T11:36:43.791Z,11.14
2017-02-05T11:37:48.907Z,11.06
2017-02-05T11:38:55.017Z,11.16
2017-02-05T11:40:00.145Z,11.13
2017-02-05T11:41:05.276Z,11.21
2017-02-05T11:42:11.373Z,11.13
2017-02-05T11:43:17.481Z,11.03
2017-02-05T11:44:22.619Z,11.03
2017-02-05T11:45:27.744Z,11.02
2017-02-05T11:46:31.890Z,10.95
2017-02-05T11:47:37.977Z,10.71
2017-02-05T11:48:43.105Z,10.74
2017-02-05T11:49:49.207Z,10.58
2017-02-05T11:50:54.338Z,10.52
2017-02-05T11:51:59.467Z,10.56
2017-02-05T11:53:04.601Z,10.32
2017-02-05T11:54:07.751Z,10.3
2017-02-05T11:55:13.844Z,10.3
2017-02-05T11:56:19.964Z,10.34
2017-02-05T11:57:25.089Z,10.33
2017-02-05T11:58:30.237Z,10.39
2017-02-05T11:59:35.373Z,10.39
2017-02-05T12:00:41.467Z,10.53
2017-02-05T12:01:46.607Z,10.46
2017-02-05T12:02:52.696Z,10.4
2017-02-05T12:03:58.793Z,10.25
2017-02-05T12:05:02.976Z,10.3
2017-02-05T12:06:09.101Z,10.28
2017-02-05T12:07:15.191Z,10.34
2017-02-05T12:08:21.310Z,10.39
2017-02-05T12:09:26.406Z,10.37
2017-02-05T12:10:31.537Z,10.58
2017-02-05T12:11:36.675Z,10.51
2017-02-05T12:12:42.768Z,10.58
2017-02-05T12:13:46.900Z,10.63
2017-02-05T12:14:53.049Z,10.91
2017-02-05T12:15:58.212Z,11.02
2017-02-05T12:17:04.310Z,11.06
2017-02-05T12:18:08.476Z,11.11
2017-02-05T12:19:13.612Z,11.2
2017-02-05T12:20:19.738Z,11.16
2017-02-05T12:21:25.813Z,11.2
2017-02-05T12:22:31.905Z,11.32
2017-02-05T12:23:38.018Z,11.32
2017-02-05T12:25:47.275Z,11.56
2017-02-05T12:26:52.407Z,11.57
2017-02-05T12:27:56.569Z,11.49
2017-02-05T12:29:02.672Z,11.5
2017-02-05T12:30:07.798Z,11.27
2017-02-05T12:31:12.903Z,11.06
2017-02-05T12:32:18.039Z,10.89
2017-02-05T12:33:22.188Z,10.78
2017-02-05T12:34:28.276Z,10.44
2017-02-05T12:35:33.377Z,10.53
2017-02-05T12:36:38.504Z,10.39
2017-02-05T12:37:43.633Z,10.25
2017-02-05T12:38:47.775Z,10.17
2017-02-05T12:39:52.910Z,10.1
2017-02-05T12:40:59.001Z,10.07
2017-02-05T12:42:04.141Z,9.99
2017-02-05T12:43:10.242Z,9.99
2017-02-05T12:44:16.352Z,9.86
2017-02-05T12:45:19.560Z,9.82
2017-02-05T12:46:25.672Z,9.86
2017-02-05T12:47:31.775Z,9.79
2017-02-05T12:48:36.875Z,9.85
2017-02-05T12:49:42.984Z,10
2017-02-05T12:50:48.126Z,10
2017-02-05T12:51:54.264Z,9.96
2017-02-05T12:52:59.365Z,10.01
2017-02-05T12:54:04.493Z,10.06
2017-02-05T12:55:08.704Z,10.07
2017-02-05T12:56:13.812Z,10.01
2017-02-05T12:57:18.923Z,10.07
2017-02-05T12:58:24.133Z,10.17
2017-02-05T12:59:28.294Z,10.21
2017-02-05T13:00:33.438Z,10.34
2017-02-05T13:01:39.533Z,10.4
2017-02-05T13:02:45.644Z,10.42
2017-02-05T13:03:51.754Z,10.56
2017-02-05T13:04:57.034Z,10.44
2017-02-05T13:06:01.202Z,10.44
2017-02-05T13:07:07.304Z,10.39
2017-02-05T13:08:13.405Z,10.25
2017-02-05T13:09:19.499Z,10.18
2017-02-05T13:10:25.600Z,10.07
2017-02-05T13:11:30.706Z,10
2017-02-05T13:12:35.826Z,9.99
2017-02-05T13:13:40.937Z,9.93
2017-02-05T13:14:46.041Z,9.91
2017-02-05T13:15:51.184Z,9.91
2017-02-05T13:16:55.340Z,9.85
2017-02-05T13:18:01.447Z,9.78
2017-02-05T13:19:06.561Z,9.67
2017-02-05T13:20:12.654Z,9.67
2017-02-05T13:21:17.835Z,9.61
2017-02-05T13:22:23.938Z,9.61
2017-02-05T13:23:30.101Z,9.5
2017-02-05T13:24:34.266Z,9.43
2017-02-05T13:25:40.359Z,9.42
2017-02-05T13:26:45.485Z,9.43
2017-02-05T13:27:51.587Z,9.38
2017-02-05T13:28:57.702Z,9.28
2017-02-05T13:30:03.906Z,9.28
2017-02-05T13:31:09.045Z,9.25
2017-02-05T13:32:14.149Z,9.27
2017-02-05T13:33:19.287Z,9.25
2017-02-05T13:34:25.391Z,9.24
2017-02-05T13:35:29.526Z,9.21
2017-02-05T13:36:34.636Z,9.25
2017-02-05T13:37:39.734Z,9.24
2017-02-05T13:38:45.834Z,9.25
2017-02-05T13:39:50.944Z,9.24
2017-02-05T13:40:57.100Z,9.21
2017-02-05T13:42:02.228Z,9.13
2017-02-05T13:43:07.340Z,9.13
2017-02-05T13:44:13.440Z,9.05
2017-02-05T13:45:17.600Z,8.93
2017-02-05T13:46:23.677Z,8.97
2017-02-05T13:47:29.778Z,8.96
2017-02-05T13:48:34.907Z,8.94
2017-02-05T13:49:40.038Z,8.97
2017-02-05T13:50:44.171Z,8.84
2017-02-05T13:51:49.295Z,8.78
2017-02-05T13:52:54.427Z,8.76
2017-02-05T13:53:58.585Z,8.76
2017-02-05T13:55:04.675Z,8.78
2017-02-05T13:56:10.796Z,8.73
2017-02-05T13:57:15.900Z,8.72
2017-02-05T13:58:20.064Z,8.66
2017-02-05T13:59:24.235Z,8.66
2017-02-05T14:00:30.303Z,8.54
2017-02-05T14:01:35.415Z,8.65
2017-02-05T14:02:40.542Z,8.58
2017-02-05T14:03:46.637Z,8.62
2017-02-05T14:04:51.776Z,8.58
2017-02-05T14:05:57.876Z,8.71
2017-02-05T14:07:02.979Z,8.65
2017-02-05T14:08:07.127Z,8.69
2017-02-05T14:09:13.236Z,8.76
2017-02-05T14:10:17.345Z,8.72
2017-02-05T14:11:23.437Z,8.75
2017-02-05T14:12:27.601Z,8.69
2017-02-05T14:13:31.757Z,8.71
2017-02-05T14:14:37.857Z,8.69
2017-02-05T14:15:42.998Z,8.69
2017-02-05T14:16:49.098Z,8.58
2017-02-05T14:17:54.219Z,8.51
2017-02-05T14:18:59.345Z,8.47
2017-02-05T14:20:04.443Z,8.44
2017-02-05T14:21:08.598Z,8.37
2017-02-05T14:22:14.702Z,8.29
2017-02-05T14:23:19.789Z,8.26
2017-02-05T14:24:24.918Z,8.26
2017-02-05T14:25:30.020Z,8.25
2017-02-05T14:26:36.116Z,8.14
2017-02-05T14:27:42.221Z,8.14
2017-02-05T14:28:48.384Z,8.12
2017-02-05T14:29:53.513Z,8.21